LROD - ORADEA

Compiled: 21:31:27 on 19/01/2018

Latest METAR/SPECI Reports

SPECI LROD 192111Z AUTO 22009KT 5000 BR FEW004/// BKN036/// 04/03 Q1011=

Previous reports

METAR LROD 192100Z AUTO 22008KT 6000 FEW004/// SCT026/// BKN039/// 04/03 Q1011=
METAR LROD 192030Z AUTO 21010KT 8000 FEW027/// BKN034/// OVC040/// 04/02 Q1011=
METAR LROD 192000Z AUTO 22010KT 9000 FEW022/// SCT027/// OVC032/// 04/02 Q1011=
METAR LROD 191930Z AUTO 21009KT 9999 FEW024/// BKN031/// BKN038/// 04/02 Q1010=

Latest TAF report

TAF AMD LROD 192002Z 1920/2003 CNL=

Valid WARNINGS

No valid warnings for LROD